Aérodrome :
LOGIN :

S'inscrire | Disclaimer

   EN    FR    IT 

 










Légende :    VFR   VFR Marginal   IFR   IFR Intensif   IFR Très Intensif
Visi : 
Plafond : 
>= 8 km
>= 3000ft
5 à 8 km
1000 à 3000 ft
1500m à 5 km
500 à 1000 ft
800 à 1500m
200 à 500 ft
< 800m
< 200 ft
Symboles :   Orages  Brouillard  Fortes neiges  Fortes précipitations  Vent > 20 kt
SIGMETs :   Divers  Orages  Givrage  Turbulence  Onde Orograph.  Cendres Volcan.






- Altitude de l'aérodrome : 74 ft
- Code IATA : LRH


LFBH - La Rochelle Ile de Ré

DERNIER METAR :
  • 231900Z AUTO 25009KT 210V270 9999 BKN015 BKN025 21/17 Q1010 TEMPO BKN013

METARs EXPIRÉS :
  • 231830Z AUTO 25014KT 9999 BKN015 21/17 Q1010 TEMPO BKN013
  • 231800Z AUTO 26011KT 9999 BKN018 22/17 Q1010 TEMPO BKN013
  • 231730Z AUTO 25012KT 220V280 9999 BKN017 22/17 Q1009 TEMPO BKN013
  • 231700Z AUTO 23010KT 200V270 9999 FEW017 23/18 Q1009 TEMPO 24015G25KT BKN010
  • 231630Z AUTO 26011KT 230V290 9999 SCT019 BKN026 22/17 Q1010 TEMPO 24015G25KT BKN010

TAF TAF LFBH
Valide du 23 à 18h jusqu'au 24 à 18h UTC


231700Z 2318/2418 24010KT 9999 BKN025
PROB30
TEMPO 2318/2403 BKN013
PROB30
TEMPO 2403/2413 3000 SHRA BKN013TCU
PROB40
TEMPO 2413/2418 24015G25KT 3000 SHRA BKN013TCU
ATIS : +33 5 46 00 13 92



MET'MAP, la Météo Aéronautique d'un coup d'oeil ! - Copyright ORBIFLY Décembre 2007 - Disclaimer

ORBIFLY MET'MAP TEAM :

Programmation & Développement : Alexandra Zaïnal
Sur une idée originale de : Baudouin d'Aumeries
Assistance à la programmation : Marc-Olivier Méhu
Soutien technique & logistique : Manuel Goepfert

Contact : metmap@orbifly.com




SOURCES & CREDITS :

   NOAA